Terminal Aerodrome Forecast
Issued by NWS

Current Version | Previous Version | Graphics & Text | Print | Product List | Glossary On
Versions: 1 2 3 4 5 6 7 8 9 10 11 12 13 14 15 16 17
812
FTUS41 KILN 101729
TAFLCK
TAF
KLCK 101729Z 1018/1118 27016G22KT 2SM -SHSN BKN018 OVC025
     FM102200 27016G22KT 5SM -SHSN BKN025 OVC035
     FM110000 28012G18KT P6SM -SHSN BKN025 OVC035
     FM110300 28010KT P6SM SCT025 BKN035
     FM111500 28010KT P6SM BKN025 BKN035=

USA.gov is the U.S. government's official web portal to all federal, state and local government web resources and services.